Aérodrome :
LOGIN :

S'inscrire | Disclaimer

   EN    FR    IT 

 










Légende :    VFR   VFR Marginal   IFR   IFR Intensif   IFR Très Intensif
Visi : 
Plafond : 
>= 8 km
>= 3000ft
5 à 8 km
1000 à 3000 ft
1500m à 5 km
500 à 1000 ft
800 à 1500m
200 à 500 ft
< 800m
< 200 ft
Symboles :   Orages  Brouillard  Fortes neiges  Fortes précipitations  Vent > 20 kt
SIGMETs :   Divers  Orages  Givrage  Turbulence  Onde Orograph.  Cendres Volcan.







- Altitude de l'aérodrome : 464 ft
- Code IATA : EVX
- Voir les cartes d'approche


LFOE - Evreux

DERNIER METAR :
  • 250630Z AUTO 35007KT 320V030 CAVOK 05/02 Q1013

METARs EXPIRÉS :
  • 250600Z AUTO 34006KT 310V050 CAVOK 05/02 Q1013
  • 250530Z AUTO 33005KT 300V030 CAVOK 05/03 Q1012
  • 250500Z AUTO 32003KT 290V010 9999 -RADZ FEW020 SCT032 BKN054 06/04 Q1012
  • 250430Z AUTO 34005KT 300V030 9999 -RA SCT023 BKN028 BKN033 06/04 Q1012
  • 250400Z AUTO 33006KT 290V360 9000 -RA SCT022 SCT033 OVC039 06/04 Q1012

TAF TAF LFOE
Valide du 25 à 03h jusqu'au 26 à 03h UTC


250200Z 2503/2603 30006KT 9999 BKN014
TEMPO 2503/2506 4000 -RA BKN008
BECMG 2507/2509 BKN030
Pas de NOTAMs connus pour ce terrain.



MET'MAP, la Météo Aéronautique d'un coup d'oeil ! - Copyright ORBIFLY Décembre 2007 - Disclaimer

ORBIFLY MET'MAP TEAM :

Programmation & Développement : Alexandra Zaïnal
Conception & Développement : Baudouin d'Aumeries
Co-Programmation & Développement : Marc-Olivier Méhu
Soutien technique & logistique : Manuel Goepfert

Contact : metmap@orbifly.com




SOURCES & CREDITS :

   NOAA